Aérodrome :
LOGIN :

S'inscrire | Disclaimer

   EN    FR    IT 

 










Légende :    VFR   VFR Marginal   IFR   IFR Intensif   IFR Très Intensif
Visi : 
Plafond : 
>= 8 km
>= 3000ft
5 à 8 km
1000 à 3000 ft
1500m à 5 km
500 à 1000 ft
800 à 1500m
200 à 500 ft
< 800m
< 200 ft
Symboles :   Orages  Brouillard  Fortes neiges  Fortes précipitations  Vent > 20 kt
SIGMETs :   Divers  Orages  Givrage  Turbulence  Onde Orograph.  Cendres Volcan.







- Altitude de l'aérodrome : 3 ft
- Code IATA : DHR


EHKD - Den Helder De Kooy

DERNIER METAR :
  • 280655Z AUTO 10012KT 070V140 9999 BKN008 BKN009 OVC010 17/16 Q0996 GRN 10012KT 9000 SCT007 BKN010 OVC012

METARs EXPIRÉS :
  • 280625Z AUTO 10012KT 070V130 9999 OVC008 17/16 Q0996 GRN 10015KT 9000 SCT007 BKN010
  • 280555Z AUTO 09014KT 9999 SCT007 OVC008 17/15 Q0996 GRN 10015KT 9000 SCT007 BKN010
  • 280525Z AUTO 09014KT 9999 SCT007 OVC008 17/15 Q0997 GRN 10015KT 9000 SCT007 BKN010
  • 280455Z AUTO 09013KT 050V120 9999 BKN007 BKN009 FEW015CB 17/15 Q0997 GRN 10015KT 9000 SCT007 BKN010
  • 280427Z AUTO 09014KT 060V120 9000 BR BKN007 BKN009 FEW015CB 17/15 Q0997 GRN 10015KT 9000 SCT007 BKN010
  • 280425Z AUTO 09013KT 060V120 9000 BR SCT007 BKN008 FEW015CB 17/15 Q0997 REDZ GRN
  • 280355Z AUTO 08015KT 8000 -RA SCT007 BKN008 BKN010 FEW015CB 17/15 Q0998 GRN

TAF TAF EHKD
Valide du 28 à 05h jusqu'au 28 à 17h UTC


280435Z 2805/2817 09015KT 9999 BKN010 BKN030
PROB30
TEMPO 2805/2809 5000 SHRA TSRA BKN008 BKN020 SCT040CB
TEMPO 2809/2816 3000 SHRA TSRA BKN008 BKN020 SCT030CB
BECMG 2810/2812 18010KT
BECMG 2812/2814 23010KT
Pas de NOTAMs connus pour ce terrain.



MET'MAP, la Météo Aéronautique d'un coup d'oeil ! - Copyright ORBIFLY Décembre 2007 - Disclaimer

ORBIFLY MET'MAP TEAM :

Programmation & Développement : Alexandra Zaïnal
Conception & Développement : Baudouin d'Aumeries
Co-Programmation & Développement : Marc-Olivier Méhu
Soutien technique & logistique : Manuel Goepfert

Contact : metmap@orbifly.com




SOURCES & CREDITS :

   NOAA